createdAt,value
2023-04-03T02:46:39.636Z,95763.06
2023-04-03T02:49:06.693Z,95758.50
2023-04-03T02:51:33.640Z,95758.72
2023-04-03T02:54:00.568Z,95761.50
2023-04-03T02:56:30.994Z,95752.50
2023-04-03T02:58:57.972Z,95758.66
2023-04-03T03:01:25.175Z,95758.66
2023-04-03T03:03:51.736Z,95764.66
2023-04-03T03:06:18.562Z,95767.91
2023-04-03T03:08:45.449Z,95761.69
2023-04-03T03:11:12.242Z,95762.97
2023-04-03T03:13:39.119Z,95755.84
2023-04-03T03:16:06.488Z,95758.72
2023-04-03T03:18:33.932Z,95759.53
2023-04-03T03:21:01.929Z,95761.81
2023-04-03T03:23:31.057Z,95761.44
2023-04-03T03:25:58.909Z,95758.53
2023-04-03T03:28:25.888Z,95755.78
2023-04-03T03:30:52.571Z,95767.34
2023-04-03T03:33:19.847Z,95762.50
2023-04-03T03:35:46.955Z,95758.59
2023-04-03T03:38:13.557Z,95758.00
2023-04-03T03:40:40.327Z,95757.31
2023-04-03T03:43:07.418Z,95755.38
2023-04-03T03:45:34.237Z,95765.00
2023-04-03T03:48:02.662Z,95768.44
2023-04-03T03:50:29.464Z,95762.91
2023-04-03T03:52:56.564Z,95759.81
2023-04-03T03:55:23.121Z,95763.53
2023-04-03T03:57:53.551Z,95762.00
2023-04-03T04:00:21.083Z,95763.84
2023-04-03T04:02:53.723Z,95756.75
2023-04-03T04:05:23.274Z,95760.38
2023-04-03T04:07:50.192Z,95758.69
2023-04-03T04:10:16.887Z,95762.72
2023-04-03T04:12:44.997Z,95763.47
2023-04-03T04:15:12.173Z,95761.94
2023-04-03T04:17:40.083Z,95760.16
2023-04-03T04:20:11.907Z,95759.56
2023-04-03T04:22:40.080Z,95758.94
2023-04-03T04:25:07.390Z,95768.78
2023-04-03T04:27:34.767Z,95771.81
2023-04-03T04:30:01.929Z,95762.28
2023-04-03T04:32:28.694Z,95765.09
2023-04-03T04:34:55.760Z,95775.94
2023-04-03T04:37:22.870Z,95766.63
2023-04-03T04:39:49.571Z,95780.88
2023-04-03T04:42:17.431Z,95772.78
2023-04-03T04:44:45.905Z,95780.13
2023-04-03T04:47:14.198Z,95772.06
2023-04-03T04:49:40.984Z,95775.75
2023-04-03T04:52:08.457Z,95774.97
2023-04-03T04:54:35.677Z,95777.66
2023-04-03T04:57:02.369Z,95771.84
2023-04-03T04:59:29.903Z,95781.09
2023-04-03T05:01:58.406Z,95779.19
2023-04-03T05:04:26.304Z,95773.84
2023-04-03T05:06:59.155Z,95778.97
2023-04-03T05:09:28.004Z,95777.63
2023-04-03T05:11:57.114Z,95781.88
2023-04-03T05:14:27.058Z,95787.94
2023-04-03T05:16:56.121Z,95785.34
2023-04-03T05:19:26.679Z,95794.81
2023-04-03T05:21:53.786Z,95783.94
2023-04-03T05:24:20.799Z,95794.44
2023-04-03T05:26:47.784Z,95793.53
2023-04-03T05:29:15.619Z,95790.69
2023-04-03T05:31:42.560Z,95789.59
2023-04-03T05:34:11.487Z,95787.06
2023-04-03T05:36:39.617Z,95785.53
2023-04-03T05:39:08.917Z,95792.31
2023-04-03T05:41:38.734Z,95795.50
2023-04-03T05:44:05.924Z,95792.31
2023-04-03T05:46:32.755Z,95793.84
2023-04-03T05:49:03.295Z,95799.88
2023-04-03T05:51:35.938Z,95798.09
2023-04-03T05:54:27.984Z,95792.06
2023-04-03T05:57:01.730Z,95793.50
2023-04-03T05:59:29.158Z,95798.81
2023-04-03T06:01:58.331Z,95795.81
2023-04-03T06:04:25.624Z,95796.41
2023-04-03T06:06:56.040Z,95799.94
2023-04-03T06:09:24.673Z,95798.38
2023-04-03T06:11:51.331Z,95805.59
2023-04-03T06:14:18.017Z,95807.88
2023-04-03T06:16:44.841Z,95804.38
2023-04-03T06:19:13.066Z,95800.66
2023-04-03T06:21:44.895Z,95807.22
2023-04-03T06:24:15.483Z,95810.84
2023-04-03T06:26:42.470Z,95811.34
2023-04-03T06:29:09.310Z,95810.75
2023-04-03T06:31:37.492Z,95811.09
2023-04-03T06:34:05.032Z,95805.44
2023-04-03T06:36:32.765Z,95817.97
2023-04-03T06:38:59.316Z,95816.41
2023-04-03T06:41:27.173Z,95815.38
2023-04-03T06:43:53.800Z,95814.38
2023-04-03T06:46:22.757Z,95810.94
2023-04-03T06:48:50.514Z,95818.31
2023-04-03T06:51:28.867Z,95812.41
2023-04-03T06:53:57.585Z,95826.16
2023-04-03T06:56:24.571Z,95816.97
2023-04-03T06:58:52.418Z,95820.75
2023-04-03T07:01:22.600Z,95815.19
2023-04-03T07:03:50.088Z,95819.84
2023-04-03T07:06:17.778Z,95822.97
2023-04-03T07:08:45.571Z,95825.88
2023-04-03T07:11:12.848Z,95829.41
2023-04-03T07:13:39.841Z,95831.63
2023-04-03T07:16:07.235Z,95832.53
2023-04-03T07:18:34.394Z,95834.91
2023-04-03T07:21:01.444Z,95840.16
2023-04-03T07:23:28.397Z,95836.78
2023-04-03T07:25:55.227Z,95836.75
2023-04-03T07:28:23.783Z,95831.97
2023-04-03T07:30:59.859Z,95836.09
2023-04-03T07:33:27.109Z,95842.00
2023-04-03T07:35:53.645Z,95846.06
2023-04-03T07:38:20.496Z,95848.47
2023-04-03T07:40:51.548Z,95852.56
2023-04-03T07:43:19.693Z,95855.72
2023-04-03T07:45:46.519Z,95858.34
2023-04-03T07:48:14.191Z,95855.47
2023-04-03T07:50:41.546Z,95860.63
2023-04-03T07:53:08.834Z,95866.50
2023-04-03T07:55:38.374Z,95862.94
2023-04-03T07:58:05.677Z,95866.56
2023-04-03T08:00:32.389Z,95869.75
2023-04-03T08:02:59.132Z,95862.19
2023-04-03T08:05:26.215Z,95863.19
2023-04-03T08:07:52.997Z,95869.03
2023-04-03T08:10:19.727Z,95872.69
2023-04-03T08:12:49.624Z,95869.13
2023-04-03T08:15:17.272Z,95877.09
2023-04-03T08:17:43.835Z,95878.56
2023-04-03T08:20:11.358Z,95879.00
2023-04-03T08:22:37.975Z,95875.31
2023-04-03T08:25:04.866Z,95873.75
2023-04-03T08:27:31.494Z,95871.56
2023-04-03T08:29:58.187Z,95877.56
2023-04-03T08:32:25.142Z,95875.78
2023-04-03T08:34:51.888Z,95885.91
2023-04-03T08:37:18.727Z,95882.47
2023-04-03T08:39:45.323Z,95881.75
2023-04-03T08:42:45.000Z,95880.22
2023-04-03T08:45:17.017Z,95884.03
2023-04-03T08:47:49.904Z,95882.72
2023-04-03T08:50:21.939Z,95885.41
2023-04-03T08:52:53.279Z,95877.59
2023-04-03T08:55:27.954Z,95892.72
2023-04-03T08:58:13.420Z,95890.50
2023-04-03T09:01:06.133Z,95889.91
2023-04-03T09:03:37.216Z,95889.66
2023-04-03T09:06:22.488Z,95888.25
2023-04-03T09:09:11.642Z,95892.44
2023-04-03T09:11:58.333Z,95889.88
2023-04-03T09:14:37.084Z,95890.22
2023-04-03T09:17:13.601Z,95885.91
2023-04-03T09:19:57.620Z,95886.34
2023-04-03T09:22:32.739Z,95888.47
2023-04-03T09:25:00.920Z,95876.88
2023-04-03T09:27:28.093Z,95889.38
2023-04-03T09:29:58.934Z,95881.72
2023-04-03T09:32:31.239Z,95878.81
2023-04-03T09:35:09.664Z,95876.78
2023-04-03T09:37:46.965Z,95879.66
2023-04-03T09:40:32.359Z,95878.94
2023-04-03T09:43:21.401Z,95876.72
2023-04-03T09:45:49.901Z,95876.34
2023-04-03T09:48:20.162Z,95882.41
2023-04-03T09:51:02.356Z,95880.34
2023-04-03T09:53:44.036Z,95878.56
2023-04-03T09:56:16.904Z,95879.00
2023-04-03T09:58:50.900Z,95879.22
2023-04-03T10:01:29.973Z,95871.81
2023-04-03T10:04:26.164Z,95873.56
2023-04-03T10:06:55.183Z,95877.72
2023-04-03T10:09:25.949Z,95877.28
2023-04-03T10:12:12.940Z,95870.84
2023-04-03T10:14:42.177Z,95875.44
2023-04-03T10:17:24.111Z,95873.72
2023-04-03T10:20:00.168Z,95867.25
2023-04-03T10:22:49.228Z,95872.91
2023-04-03T10:25:31.370Z,95872.31
2023-04-03T10:28:22.561Z,95867.78
2023-04-03T10:31:15.251Z,95870.84
2023-04-03T10:34:23.308Z,95871.78
2023-04-03T10:37:16.198Z,95869.38
2023-04-03T10:39:53.723Z,95871.03
2023-04-03T10:42:38.575Z,95876.81
2023-04-03T10:45:22.680Z,95872.25
2023-04-03T10:48:00.275Z,95878.44
2023-04-03T10:50:39.799Z,95873.16
2023-04-03T10:53:29.540Z,95881.94
2023-04-03T10:56:27.129Z,95875.44
2023-04-03T10:58:59.868Z,95876.56
2023-04-03T11:01:34.534Z,95878.00
2023-04-03T11:04:04.806Z,95874.63
2023-04-03T11:06:45.401Z,95880.94
2023-04-03T11:09:27.566Z,95887.34
2023-04-03T11:12:02.950Z,95877.59
2023-04-03T11:14:39.057Z,95882.78
2023-04-03T11:17:17.718Z,95880.34
2023-04-03T11:20:01.135Z,95881.34
2023-04-03T11:22:46.225Z,95881.38
2023-04-03T11:25:12.792Z,95877.53
2023-04-03T11:27:57.039Z,95879.25
2023-04-03T11:30:31.090Z,95871.75
2023-04-03T11:33:16.405Z,95864.16
2023-04-03T11:35:46.191Z,95864.91
2023-04-03T11:38:30.337Z,95868.09
2023-04-03T11:40:57.687Z,95859.91
2023-04-03T11:43:30.658Z,95853.78
2023-04-03T11:46:00.295Z,95852.47
2023-04-03T11:48:30.419Z,95861.34
2023-04-03T11:50:57.840Z,95858.16
2023-04-03T11:53:46.568Z,95855.88
2023-04-03T11:56:25.447Z,95850.19
2023-04-03T11:59:07.089Z,95846.88
2023-04-03T12:01:52.157Z,95853.56
2023-04-03T12:04:21.611Z,95856.06
2023-04-03T12:06:48.212Z,95851.53
2023-04-03T12:09:31.768Z,95854.56
2023-04-03T12:12:02.507Z,95847.81
2023-04-03T12:14:29.848Z,95848.59
2023-04-03T12:16:58.904Z,95844.06
2023-04-03T12:19:42.637Z,95840.38
2023-04-03T12:22:16.285Z,95846.16
2023-04-03T12:24:49.512Z,95843.53
2023-04-03T12:27:30.042Z,95838.59
2023-04-03T12:30:06.668Z,95843.94
2023-04-03T12:32:42.681Z,95843.97
2023-04-03T12:35:28.411Z,95840.38
2023-04-03T12:38:33.516Z,95833.44
2023-04-03T12:41:28.711Z,95840.22
2023-04-03T12:44:23.190Z,95833.75
2023-04-03T12:46:50.987Z,95834.72
2023-04-03T12:49:42.610Z,95830.56
2023-04-03T12:52:31.321Z,95827.41
2023-04-03T12:55:00.132Z,95827.28
2023-04-03T12:57:28.572Z,95826.13
2023-04-03T12:59:55.786Z,95822.72
2023-04-03T13:02:31.863Z,95826.44
2023-04-03T13:05:05.872Z,95823.50
2023-04-03T13:07:34.600Z,95821.19
2023-04-03T13:13:08.322Z,95809.94
2023-04-03T13:15:50.209Z,95818.84
2023-04-03T13:18:30.773Z,95810.84
2023-04-03T13:21:02.630Z,95805.88
2023-04-03T13:23:30.477Z,95800.34
2023-04-03T13:26:01.776Z,95802.31
2023-04-03T13:28:28.656Z,95793.13
2023-04-03T13:31:11.063Z,95797.47
2023-04-03T13:33:39.004Z,95799.53
2023-04-03T13:36:21.566Z,95789.09
2023-04-03T13:39:13.751Z,95777.97
2023-04-03T13:41:52.215Z,95773.53
2023-04-03T13:44:21.838Z,95780.88
2023-04-03T13:46:57.334Z,95778.81
2023-04-03T13:49:35.296Z,95778.38
2023-04-03T13:52:23.169Z,95768.78
2023-04-03T13:54:56.585Z,95774.91
2023-04-03T13:57:23.513Z,95783.81
2023-04-03T13:59:50.961Z,95788.06
2023-04-03T14:02:32.595Z,95789.31
2023-04-03T14:05:02.491Z,95793.44
2023-04-03T14:07:30.562Z,95790.69
2023-04-03T14:09:57.186Z,95791.25
2023-04-03T14:12:31.958Z,95799.00
2023-04-03T14:15:03.461Z,95793.25
2023-04-03T14:17:30.327Z,95793.38
2023-04-03T14:19:58.968Z,95806.41
2023-04-03T14:22:33.342Z,95795.88
2023-04-03T14:25:01.843Z,95790.84
2023-04-03T14:27:37.248Z,95788.13
2023-04-03T14:30:05.779Z,95784.22
2023-04-03T14:32:32.421Z,95780.31
2023-04-03T14:34:59.526Z,95776.88
2023-04-03T14:37:30.163Z,95774.81
2023-04-03T14:39:58.743Z,95767.28
2023-04-03T14:42:31.809Z,95775.00
2023-04-03T14:44:59.757Z,95770.84
2023-04-03T14:47:31.746Z,95764.06
2023-04-03T14:50:01.918Z,95761.59
2023-04-03T14:52:34.700Z,95768.88
2023-04-03T14:55:03.713Z,95768.66
2023-04-03T14:57:31.458Z,95761.53
2023-04-03T14:59:58.154Z,95757.59
2023-04-03T15:02:37.372Z,95759.63
2023-04-03T15:05:07.574Z,95766.97
2023-04-03T15:07:55.758Z,95757.25
2023-04-03T15:10:25.789Z,95754.44
2023-04-03T15:12:53.671Z,95760.81
2023-04-03T15:15:22.048Z,95764.69
2023-04-03T15:17:54.730Z,95767.19
2023-04-03T15:20:24.036Z,95767.72
2023-04-03T15:22:50.783Z,95779.56
2023-04-03T15:25:17.484Z,95780.88
2023-04-03T15:27:44.069Z,95779.00
2023-04-03T15:30:19.177Z,95780.09
2023-04-03T15:32:46.445Z,95783.50
2023-04-03T15:35:13.061Z,95774.63
2023-04-03T15:37:39.685Z,95780.88
2023-04-03T15:40:07.886Z,95781.47
2023-04-03T15:42:34.635Z,95782.16
2023-04-03T15:45:01.228Z,95782.97
2023-04-03T15:47:28.410Z,95778.13
2023-04-03T15:49:55.978Z,95789.72
2023-04-03T15:52:22.864Z,95785.19
2023-04-03T15:54:49.544Z,95776.72
2023-04-03T15:57:16.108Z,95779.34
2023-04-03T15:59:42.674Z,95776.94
2023-04-03T16:02:13.686Z,95772.47
2023-04-03T16:04:41.197Z,95772.41
2023-04-03T16:07:07.715Z,95778.56
2023-04-03T16:09:35.873Z,95777.59
2023-04-03T16:12:03.063Z,95775.59
2023-04-03T16:14:31.235Z,95776.44
2023-04-03T16:17:01.244Z,95783.25
2023-04-03T16:19:27.989Z,95778.56
2023-04-03T16:21:56.035Z,95780.00
2023-04-03T16:24:22.872Z,95786.25
2023-04-03T16:26:49.495Z,95786.97
2023-04-03T16:29:16.014Z,95789.81
2023-04-03T16:31:42.806Z,95791.13
2023-04-03T16:34:09.447Z,95791.03
2023-04-03T16:36:36.124Z,95792.75
2023-04-03T16:39:02.779Z,95796.16
2023-04-03T16:41:29.306Z,95794.81
2023-04-03T16:43:56.008Z,95796.41
2023-04-03T16:46:22.553Z,95805.66
2023-04-03T16:48:49.151Z,95811.56
2023-04-03T16:51:15.917Z,95801.53
2023-04-03T16:53:43.206Z,95804.69
2023-04-03T16:56:09.719Z,95812.41
2023-04-03T16:58:36.272Z,95806.75
2023-04-03T17:01:19.630Z,95811.31
2023-04-03T17:03:46.351Z,95815.75
2023-04-03T17:06:17.328Z,95815.28
2023-04-03T17:08:45.185Z,95807.97
2023-04-03T17:11:26.672Z,95805.97
2023-04-03T17:13:53.258Z,95814.81
2023-04-03T17:16:20.073Z,95817.22
2023-04-03T17:18:47.864Z,95823.22
2023-04-03T17:21:15.785Z,95820.31
2023-04-03T17:23:45.234Z,95817.88
2023-04-03T17:26:11.829Z,95817.41
2023-04-03T17:28:40.513Z,95829.69
2023-04-03T17:31:07.050Z,95816.63
2023-04-03T17:33:33.636Z,95826.81
2023-04-03T17:36:04.180Z,95826.59
2023-04-03T17:38:33.809Z,95824.06
2023-04-03T17:41:03.519Z,95827.59
2023-04-03T17:43:30.577Z,95825.19
2023-04-03T17:46:05.608Z,95824.00
2023-04-03T17:48:33.919Z,95828.88
2023-04-03T17:51:05.156Z,95827.94
2023-04-03T17:53:31.980Z,95839.13
2023-04-03T17:55:58.523Z,95837.06
2023-04-03T17:58:25.093Z,95839.78
2023-04-03T18:00:51.972Z,95850.16
2023-04-03T18:03:18.590Z,95839.72
2023-04-03T18:05:45.243Z,95848.53
2023-04-03T18:08:11.828Z,95854.13
2023-04-03T18:10:38.565Z,95850.44
2023-04-03T18:13:07.652Z,95851.03
2023-04-03T18:15:35.621Z,95852.84
2023-04-03T18:18:02.386Z,95853.31
2023-04-03T18:20:29.033Z,95854.69
2023-04-03T18:22:55.600Z,95866.78
2023-04-03T18:25:22.247Z,95859.34
2023-04-03T18:27:49.527Z,95866.69
2023-04-03T18:30:17.514Z,95855.50
2023-04-03T18:32:44.300Z,95866.69
2023-04-03T18:35:11.433Z,95873.06
2023-04-03T18:37:38.078Z,95872.16
2023-04-03T18:40:05.062Z,95872.38
2023-04-03T18:42:31.836Z,95875.38
2023-04-03T18:45:01.050Z,95878.00
2023-04-03T18:47:28.997Z,95872.38
2023-04-03T18:49:56.012Z,95883.13
2023-04-03T18:52:25.123Z,95883.75
2023-04-03T18:54:51.939Z,95881.91
2023-04-03T18:57:18.633Z,95885.72
2023-04-03T18:59:45.326Z,95877.69
2023-04-03T19:02:13.775Z,95883.34
2023-04-03T19:04:40.904Z,95888.25
2023-04-03T19:07:09.523Z,95888.25
2023-04-03T19:09:38.652Z,95890.69
2023-04-03T19:12:06.896Z,95893.94
2023-04-03T19:14:33.490Z,95893.56
2023-04-03T19:17:02.106Z,95887.91
2023-04-03T19:19:28.690Z,95898.19
2023-04-03T19:21:55.213Z,95896.28
2023-04-03T19:24:21.790Z,95899.94
2023-04-03T19:26:48.350Z,95896.03
2023-04-03T19:29:15.080Z,95900.91
2023-04-03T19:31:41.800Z,95895.34
2023-04-03T19:34:08.672Z,95897.19
2023-04-03T19:36:35.956Z,95900.78
2023-04-03T19:39:03.817Z,95897.81
2023-04-03T19:41:32.981Z,95898.34
2023-04-03T19:43:59.618Z,95893.81
2023-04-03T19:46:29.025Z,95890.63
2023-04-03T19:48:56.080Z,95889.53
2023-04-03T19:51:22.924Z,95901.97
2023-04-03T19:53:49.544Z,95902.91
2023-04-03T19:56:16.853Z,95903.97
2023-04-03T19:58:43.572Z,95901.38
2023-04-03T20:01:10.210Z,95908.75
2023-04-03T20:03:36.778Z,95904.47
2023-04-03T20:06:04.941Z,95903.56
2023-04-03T20:08:32.134Z,95905.13
2023-04-03T20:10:58.765Z,95898.88
2023-04-03T20:13:25.447Z,95906.53
2023-04-03T20:15:52.034Z,95912.00
2023-04-03T20:18:20.860Z,95905.56
2023-04-03T20:20:59.468Z,95902.22
2023-04-03T20:23:27.225Z,95902.31
2023-04-03T20:26:08.546Z,95902.59
2023-04-03T20:28:36.227Z,95900.47
2023-04-03T20:31:03.031Z,95896.75
2023-04-03T20:33:30.034Z,95895.38
2023-04-03T20:35:58.078Z,95898.09
2023-04-03T20:38:25.347Z,95905.47
2023-04-03T20:40:52.279Z,95906.03
2023-04-03T20:43:19.403Z,95898.91
2023-04-03T20:45:46.056Z,95898.84
2023-04-03T20:48:13.303Z,95904.72
2023-04-03T20:50:41.249Z,95907.69
2023-04-03T20:53:08.831Z,95899.97
2023-04-03T20:55:35.599Z,95892.53
2023-04-03T20:58:02.202Z,95894.41
2023-04-03T21:00:32.200Z,95900.78
2023-04-03T21:03:01.458Z,95897.06
2023-04-03T21:05:30.022Z,95893.97
2023-04-03T21:08:35.636Z,95896.84
2023-04-03T21:11:40.057Z,95901.50
2023-04-03T21:14:45.792Z,95902.88
2023-04-03T21:17:12.372Z,95895.19
2023-04-03T21:19:45.716Z,95895.22
2023-04-03T21:22:13.555Z,95893.81
2023-04-03T21:24:40.505Z,95895.28
2023-04-03T21:27:08.162Z,95896.06
2023-04-03T21:29:34.741Z,95894.31
2023-04-03T21:32:01.620Z,95899.34
2023-04-03T21:34:30.183Z,95895.06
2023-04-03T21:37:01.160Z,95900.06
2023-04-03T21:39:28.157Z,95899.09
2023-04-03T21:41:55.000Z,95899.00
2023-04-03T21:44:22.589Z,95896.13
2023-04-03T21:46:53.598Z,95892.53
2023-04-03T21:49:24.511Z,95895.91
2023-04-03T21:51:51.744Z,95896.94
2023-04-03T21:54:18.761Z,95894.91
2023-04-03T21:56:47.750Z,95884.03
2023-04-03T21:59:14.514Z,95883.47
2023-04-03T22:01:41.348Z,95886.19
2023-04-03T22:04:08.203Z,95886.69
2023-04-03T22:06:34.770Z,95893.34
2023-04-03T22:09:01.449Z,95881.09
2023-04-03T22:11:28.981Z,95882.38
2023-04-03T22:13:56.007Z,95884.16
2023-04-03T22:16:23.537Z,95882.06
2023-04-03T22:18:52.018Z,95879.72
2023-04-03T22:21:18.908Z,95880.50
2023-04-03T22:23:45.807Z,95884.22
2023-04-03T22:26:13.349Z,95883.63
2023-04-03T22:28:42.380Z,95878.75
2023-04-03T22:31:14.033Z,95884.03
2023-04-03T22:33:41.533Z,95877.28
2023-04-03T22:36:10.263Z,95875.31
2023-04-03T22:38:37.894Z,95879.69
2023-04-03T22:41:06.256Z,95882.00
2023-04-03T22:43:34.684Z,95878.13
2023-04-03T22:46:02.664Z,95871.59
2023-04-03T22:48:30.652Z,95873.16
2023-04-03T22:50:57.651Z,95874.47
2023-04-03T22:53:24.258Z,95872.44
2023-04-03T22:56:01.679Z,95876.16
2023-04-03T22:58:29.555Z,95878.22
2023-04-03T23:01:09.309Z,95874.53
2023-04-03T23:03:38.786Z,95883.22
2023-04-03T23:06:06.292Z,95879.78
2023-04-03T23:08:34.914Z,95877.41
2023-04-03T23:11:02.139Z,95876.25
2023-04-03T23:13:28.798Z,95874.56
2023-04-03T23:15:56.384Z,95877.13
2023-04-03T23:18:23.359Z,95876.50
2023-04-03T23:20:51.667Z,95880.31
2023-04-03T23:23:22.358Z,95872.53
2023-04-03T23:25:57.128Z,95869.84
2023-04-03T23:28:24.000Z,95876.28
2023-04-03T23:30:56.929Z,95867.69
2023-04-03T23:33:23.420Z,95879.41
2023-04-03T23:35:50.076Z,95871.41
2023-04-03T23:38:16.717Z,95873.25
2023-04-03T23:40:44.129Z,95876.81
2023-04-03T23:43:11.108Z,95868.28
2023-04-03T23:45:37.628Z,95873.19
2023-04-03T23:48:04.510Z,95869.25
2023-04-03T23:50:31.553Z,95869.13
2023-04-03T23:52:58.089Z,95866.41
2023-04-03T23:55:24.682Z,95869.03
2023-04-03T23:57:51.198Z,95867.88
